sensor_id;sensor_type;location;lat;lon;timestamp;pressure;altitude;pressure_sealevel;temperature;humidity
39954;BME280;25631;51.516;-0.470;2023-08-12T00:00:47;101338.20;;;18.31;38.13
39954;BME280;25631;51.516;-0.470;2023-08-12T00:03:24;101336.25;;;18.33;38.04
39954;BME280;25631;51.516;-0.470;2023-08-12T00:06:00;101335.76;;;18.09;38.10
39954;BME280;25631;51.516;-0.470;2023-08-12T00:08:37;101336.06;;;18.36;37.96
39954;BME280;25631;51.516;-0.470;2023-08-12T00:11:13;101333.50;;;18.24;38.01
39954;BME280;25631;51.516;-0.470;2023-08-12T00:13:50;101330.88;;;18.15;37.95
39954;BME280;25631;51.516;-0.470;2023-08-12T00:16:26;101328.84;;;18.05;37.98
39954;BME280;25631;51.516;-0.470;2023-08-12T00:19:02;101325.56;;;18.24;37.99
39954;BME280;25631;51.516;-0.470;2023-08-12T00:21:39;101326.90;;;18.12;38.06
39954;BME280;25631;51.516;-0.470;2023-08-12T00:24:15;101322.20;;;18.17;38.01
39954;BME280;25631;51.516;-0.470;2023-08-12T00:26:52;101317.62;;;18.27;38.01
39954;BME280;25631;51.516;-0.470;2023-08-12T00:29:28;101317.71;;;18.33;37.95
39954;BME280;25631;51.516;-0.470;2023-08-12T00:32:05;101318.76;;;18.32;37.83
39954;BME280;25631;51.516;-0.470;2023-08-12T00:34:42;101316.06;;;18.22;37.77
39954;BME280;25631;51.516;-0.470;2023-08-12T00:37:18;101311.39;;;18.42;37.73
39954;BME280;25631;51.516;-0.470;2023-08-12T00:39:55;101309.95;;;18.44;37.74
39954;BME280;25631;51.516;-0.470;2023-08-12T00:42:31;101311.77;;;18.13;37.74
39954;BME280;25631;51.516;-0.470;2023-08-12T00:45:10;101313.99;;;18.01;37.80
39954;BME280;25631;51.516;-0.470;2023-08-12T00:47:46;101314.45;;;18.22;37.72
39954;BME280;25631;51.516;-0.470;2023-08-12T00:50:23;101314.03;;;18.14;37.76
39954;BME280;25631;51.516;-0.470;2023-08-12T00:53:00;101313.92;;;18.16;37.80
39954;BME280;25631;51.516;-0.470;2023-08-12T00:55:36;101309.14;;;17.98;37.94
39954;BME280;25631;51.516;-0.470;2023-08-12T00:58:13;101303.80;;;17.93;38.08
39954;BME280;25631;51.516;-0.470;2023-08-12T01:00:49;101302.54;;;17.74;38.23
39954;BME280;25631;51.516;-0.470;2023-08-12T01:03:27;101301.21;;;17.88;38.41
39954;BME280;25631;51.516;-0.470;2023-08-12T01:06:03;101299.50;;;17.49;38.57
39954;BME280;25631;51.516;-0.470;2023-08-12T01:08:40;101294.42;;;17.94;38.44
39954;BME280;25631;51.516;-0.470;2023-08-12T01:11:21;101295.29;;;17.51;38.60
39954;BME280;25631;51.516;-0.470;2023-08-12T01:14:06;101292.02;;;17.61;38.63
39954;BME280;25631;51.516;-0.470;2023-08-12T01:16:50;101290.02;;;17.54;38.69
39954;BME280;25631;51.516;-0.470;2023-08-12T01:19:32;101288.98;;;17.67;38.67
39954;BME280;25631;51.516;-0.470;2023-08-12T01:22:11;101284.07;;;17.16;38.79
39954;BME280;25631;51.516;-0.470;2023-08-12T01:24:47;101292.06;;;17.20;39.07
39954;BME280;25631;51.516;-0.470;2023-08-12T01:27:24;101290.60;;;17.36;39.04
39954;BME280;25631;51.516;-0.470;2023-08-12T01:30:01;101287.14;;;17.01;39.17
39954;BME280;25631;51.516;-0.470;2023-08-12T01:32:43;101285.18;;;17.37;39.23
39954;BME280;25631;51.516;-0.470;2023-08-12T01:35:25;101287.51;;;17.10;39.33
39954;BME280;25631;51.516;-0.470;2023-08-12T01:38:03;101289.31;;;17.17;39.57
39954;BME280;25631;51.516;-0.470;2023-08-12T01:40:41;101291.85;;;17.10;39.67
39954;BME280;25631;51.516;-0.470;2023-08-12T01:43:19;101289.94;;;16.88;39.88
39954;BME280;25631;51.516;-0.470;2023-08-12T01:45:56;101286.89;;;16.66;40.09
39954;BME280;25631;51.516;-0.470;2023-08-12T01:48:33;101287.98;;;16.87;40.05
39954;BME280;25631;51.516;-0.470;2023-08-12T01:51:10;101284.92;;;16.70;40.04
39954;BME280;25631;51.516;-0.470;2023-08-12T01:53:47;101284.30;;;16.54;40.27
39954;BME280;25631;51.516;-0.470;2023-08-12T01:56:23;101286.87;;;16.79;40.18
39954;BME280;25631;51.516;-0.470;2023-08-12T01:59:00;101287.69;;;17.06;40.16
39954;BME280;25631;51.516;-0.470;2023-08-12T02:01:36;101286.47;;;17.11;40.21
39954;BME280;25631;51.516;-0.470;2023-08-12T02:04:13;101282.93;;;16.66;40.25
39954;BME280;25631;51.516;-0.470;2023-08-12T02:06:49;101284.19;;;16.65;40.24
39954;BME280;25631;51.516;-0.470;2023-08-12T02:09:26;101288.19;;;16.67;40.46
39954;BME280;25631;51.516;-0.470;2023-08-12T02:12:03;101286.33;;;16.66;40.41
39954;BME280;25631;51.516;-0.470;2023-08-12T02:14:39;101288.14;;;16.44;40.40
39954;BME280;25631;51.516;-0.470;2023-08-12T02:17:15;101291.23;;;16.32;40.69
39954;BME280;25631;51.516;-0.470;2023-08-12T02:19:52;101292.71;;;16.68;40.64
39954;BME280;25631;51.516;-0.470;2023-08-12T02:22:28;101292.39;;;16.63;40.52
39954;BME280;25631;51.516;-0.470;2023-08-12T02:25:05;101294.52;;;16.58;40.46
39954;BME280;25631;51.516;-0.470;2023-08-12T02:27:41;101294.24;;;16.65;40.45
39954;BME280;25631;51.516;-0.470;2023-08-12T02:30:18;101293.18;;;16.89;40.42
39954;BME280;25631;51.516;-0.470;2023-08-12T02:32:54;101294.99;;;16.83;40.50
39954;BME280;25631;51.516;-0.470;2023-08-12T02:35:32;101295.73;;;16.61;40.54
39954;BME280;25631;51.516;-0.470;2023-08-12T02:38:09;101288.80;;;16.61;40.89
39954;BME280;25631;51.516;-0.470;2023-08-12T02:40:48;101289.28;;;16.38;41.16
39954;BME280;25631;51.516;-0.470;2023-08-12T02:43:24;101289.65;;;16.72;41.08
39954;BME280;25631;51.516;-0.470;2023-08-12T02:46:01;101294.16;;;16.31;41.40
39954;BME280;25631;51.516;-0.470;2023-08-12T02:48:37;101299.37;;;16.22;41.31
39954;BME280;25631;51.516;-0.470;2023-08-12T02:51:14;101300.43;;;16.30;41.32
39954;BME280;25631;51.516;-0.470;2023-08-12T02:53:50;101303.26;;;16.33;41.40
39954;BME280;25631;51.516;-0.470;2023-08-12T02:56:27;101292.86;;;16.37;41.29
39954;BME280;25631;51.516;-0.470;2023-08-12T02:59:03;101297.32;;;16.45;41.48
39954;BME280;25631;51.516;-0.470;2023-08-12T03:01:41;101304.85;;;16.48;41.32
39954;BME280;25631;51.516;-0.470;2023-08-12T03:04:18;101297.32;;;16.47;41.27
39954;BME280;25631;51.516;-0.470;2023-08-12T03:06:54;101295.46;;;16.41;41.27
39954;BME280;25631;51.516;-0.470;2023-08-12T03:09:31;101295.83;;;16.52;41.22
39954;BME280;25631;51.516;-0.470;2023-08-12T03:12:08;101295.27;;;16.50;41.15
39954;BME280;25631;51.516;-0.470;2023-08-12T03:14:44;101293.59;;;16.99;40.97
39954;BME280;25631;51.516;-0.470;2023-08-12T03:17:21;101292.84;;;16.33;40.97
39954;BME280;25631;51.516;-0.470;2023-08-12T03:19:57;101285.70;;;16.82;40.97
39954;BME280;25631;51.516;-0.470;2023-08-12T03:22:35;101277.85;;;16.67;40.96
39954;BME280;25631;51.516;-0.470;2023-08-12T03:25:11;101271.16;;;16.55;41.01
39954;BME280;25631;51.516;-0.470;2023-08-12T03:27:48;101270.17;;;16.27;40.90
39954;BME280;25631;51.516;-0.470;2023-08-12T03:30:25;101268.26;;;16.59;40.86
39954;BME280;25631;51.516;-0.470;2023-08-12T03:33:01;101271.81;;;16.47;40.74
39954;BME280;25631;51.516;-0.470;2023-08-12T03:35:37;101269.77;;;16.51;40.78
39954;BME280;25631;51.516;-0.470;2023-08-12T03:38:14;101267.90;;;16.52;40.67
39954;BME280;25631;51.516;-0.470;2023-08-12T03:40:51;101267.34;;;16.79;40.71
39954;BME280;25631;51.516;-0.470;2023-08-12T03:43:27;101263.58;;;16.53;40.67
39954;BME280;25631;51.516;-0.470;2023-08-12T03:46:04;101261.04;;;16.48;40.58
39954;BME280;25631;51.516;-0.470;2023-08-12T03:48:40;101257.89;;;16.30;40.54
39954;BME280;25631;51.516;-0.470;2023-08-12T03:51:17;101255.55;;;16.82;40.52
39954;BME280;25631;51.516;-0.470;2023-08-12T03:53:53;101257.17;;;16.38;40.51
39954;BME280;25631;51.516;-0.470;2023-08-12T03:56:30;101255.93;;;16.40;40.47
39954;BME280;25631;51.516;-0.470;2023-08-12T03:59:06;101253.87;;;16.38;40.41
39954;BME280;25631;51.516;-0.470;2023-08-12T04:01:42;101251.94;;;16.32;40.38
39954;BME280;25631;51.516;-0.470;2023-08-12T04:04:24;101251.88;;;16.63;40.48
39954;BME280;25631;51.516;-0.470;2023-08-12T04:07:01;101254.25;;;16.31;40.54
39954;BME280;25631;51.516;-0.470;2023-08-12T04:09:37;101251.44;;;16.36;40.70
39954;BME280;25631;51.516;-0.470;2023-08-12T04:12:14;101245.36;;;16.55;40.84
39954;BME280;25631;51.516;-0.470;2023-08-12T04:14:50;101242.90;;;16.59;40.88
39954;BME280;25631;51.516;-0.470;2023-08-12T04:17:26;101238.75;;;16.27;40.98
39954;BME280;25631;51.516;-0.470;2023-08-12T04:20:04;101236.64;;;16.52;40.95
39954;BME280;25631;51.516;-0.470;2023-08-12T04:22:41;101232.63;;;16.31;40.93
39954;BME280;25631;51.516;-0.470;2023-08-12T04:25:18;101231.89;;;16.29;40.95
39954;BME280;25631;51.516;-0.470;2023-08-12T04:27:54;101233.47;;;16.65;40.95
39954;BME280;25631;51.516;-0.470;2023-08-12T04:30:30;101231.70;;;16.41;40.97
39954;BME280;25631;51.516;-0.470;2023-08-12T04:33:07;101227.18;;;16.53;40.95
39954;BME280;25631;51.516;-0.470;2023-08-12T04:35:44;101223.27;;;16.41;40.90
39954;BME280;25631;51.516;-0.470;2023-08-12T04:38:20;101221.92;;;16.46;40.90
39954;BME280;25631;51.516;-0.470;2023-08-12T04:40:57;101220.51;;;16.55;40.91
39954;BME280;25631;51.516;-0.470;2023-08-12T04:43:33;101217.86;;;16.30;40.92
39954;BME280;25631;51.516;-0.470;2023-08-12T04:46:09;101209.50;;;16.30;41.03
39954;BME280;25631;51.516;-0.470;2023-08-12T04:48:46;101207.65;;;16.41;41.01
39954;BME280;25631;51.516;-0.470;2023-08-12T04:51:23;101204.41;;;16.45;40.97
39954;BME280;25631;51.516;-0.470;2023-08-12T04:53:59;101207.21;;;16.40;40.96
39954;BME280;25631;51.516;-0.470;2023-08-12T04:56:36;101207.19;;;16.60;40.88
39954;BME280;25631;51.516;-0.470;2023-08-12T04:59:12;101209.23;;;16.53;40.89
39954;BME280;25631;51.516;-0.470;2023-08-12T05:01:49;101211.31;;;16.55;40.86
39954;BME280;25631;51.516;-0.470;2023-08-12T05:04:25;101214.62;;;16.33;40.88
39954;BME280;25631;51.516;-0.470;2023-08-12T05:07:02;101212.56;;;16.57;40.81
39954;BME280;25631;51.516;-0.470;2023-08-12T05:09:38;101211.08;;;16.33;40.85
39954;BME280;25631;51.516;-0.470;2023-08-12T05:12:15;101209.31;;;16.13;40.77
39954;BME280;25631;51.516;-0.470;2023-08-12T05:14:51;101209.28;;;16.65;40.69
39954;BME280;25631;51.516;-0.470;2023-08-12T05:17:28;101206.85;;;16.24;40.73
39954;BME280;25631;51.516;-0.470;2023-08-12T05:20:06;101202.66;;;16.31;40.76
39954;BME280;25631;51.516;-0.470;2023-08-12T05:22:42;101208.46;;;16.46;40.85
39954;BME280;25631;51.516;-0.470;2023-08-12T05:25:19;101209.43;;;15.43;41.00
39954;BME280;25631;51.516;-0.470;2023-08-12T05:27:55;101208.50;;;16.52;41.23
39954;BME280;25631;51.516;-0.470;2023-08-12T05:30:32;101210.52;;;16.30;41.40
39954;BME280;25631;51.516;-0.470;2023-08-12T05:33:08;101210.39;;;16.05;41.71
39954;BME280;25631;51.516;-0.470;2023-08-12T05:35:47;101207.67;;;16.06;42.14
39954;BME280;25631;51.516;-0.470;2023-08-12T05:38:24;101204.15;;;16.19;42.35
39954;BME280;25631;51.516;-0.470;2023-08-12T05:41:01;101201.42;;;15.78;42.58
39954;BME280;25631;51.516;-0.470;2023-08-12T05:43:37;101194.85;;;16.23;42.67
39954;BME280;25631;51.516;-0.470;2023-08-12T05:46:13;101195.17;;;15.83;42.84
39954;BME280;25631;51.516;-0.470;2023-08-12T05:48:50;101192.69;;;15.93;42.84
39954;BME280;25631;51.516;-0.470;2023-08-12T05:51:27;101192.90;;;15.89;42.98
39954;BME280;25631;51.516;-0.470;2023-08-12T05:54:03;101192.59;;;15.99;43.07
39954;BME280;25631;51.516;-0.470;2023-08-12T05:56:40;101191.28;;;15.64;43.31
39954;BME280;25631;51.516;-0.470;2023-08-12T05:59:17;101191.53;;;15.86;43.30
39954;BME280;25631;51.516;-0.470;2023-08-12T06:01:54;101190.57;;;16.02;43.20
39954;BME280;25631;51.516;-0.470;2023-08-12T06:04:30;101193.59;;;15.88;43.37
39954;BME280;25631;51.516;-0.470;2023-08-12T06:07:06;101194.94;;;16.20;43.29
39954;BME280;25631;51.516;-0.470;2023-08-12T06:09:43;101200.62;;;16.28;43.19
39954;BME280;25631;51.516;-0.470;2023-08-12T06:12:19;101205.09;;;16.41;43.15
39954;BME280;25631;51.516;-0.470;2023-08-12T06:14:56;101206.42;;;16.40;43.07
39954;BME280;25631;51.516;-0.470;2023-08-12T06:17:33;101206.79;;;16.40;43.12
39954;BME280;25631;51.516;-0.470;2023-08-12T06:20:10;101206.27;;;16.23;43.04
39954;BME280;25631;51.516;-0.470;2023-08-12T06:22:47;101210.10;;;16.19;43.26
39954;BME280;25631;51.516;-0.470;2023-08-12T06:25:23;101205.56;;;16.36;43.34
39954;BME280;25631;51.516;-0.470;2023-08-12T06:28:00;101205.49;;;16.18;43.61
39954;BME280;25631;51.516;-0.470;2023-08-12T06:30:36;101203.94;;;16.00;43.68
39954;BME280;25631;51.516;-0.470;2023-08-12T06:33:13;101205.54;;;15.97;43.89
39954;BME280;25631;51.516;-0.470;2023-08-12T06:35:50;101200.17;;;15.95;43.72
39954;BME280;25631;51.516;-0.470;2023-08-12T06:38:26;101197.88;;;16.04;43.77
39954;BME280;25631;51.516;-0.470;2023-08-12T06:41:03;101195.10;;;16.14;43.82
39954;BME280;25631;51.516;-0.470;2023-08-12T06:43:39;101198.45;;;15.67;43.99
39954;BME280;25631;51.516;-0.470;2023-08-12T06:46:21;101198.93;;;16.14;43.67
39954;BME280;25631;51.516;-0.470;2023-08-12T06:48:58;101199.74;;;15.79;43.54
39954;BME280;25631;51.516;-0.470;2023-08-12T06:51:34;101201.45;;;16.23;43.47
39954;BME280;25631;51.516;-0.470;2023-08-12T06:54:11;101201.59;;;16.44;43.43
39954;BME280;25631;51.516;-0.470;2023-08-12T06:56:47;101205.04;;;16.14;43.70
39954;BME280;25631;51.516;-0.470;2023-08-12T06:59:24;101206.18;;;16.19;43.63
39954;BME280;25631;51.516;-0.470;2023-08-12T07:02:00;101206.01;;;16.19;43.50
39954;BME280;25631;51.516;-0.470;2023-08-12T07:04:37;101207.74;;;16.39;43.36
39954;BME280;25631;51.516;-0.470;2023-08-12T07:07:13;101206.69;;;16.77;43.12
39954;BME280;25631;51.516;-0.470;2023-08-12T07:09:50;101203.95;;;16.60;42.92
39954;BME280;25631;51.516;-0.470;2023-08-12T07:12:26;101207.08;;;16.73;42.81
39954;BME280;25631;51.516;-0.470;2023-08-12T07:15:03;101210.18;;;16.93;42.61
39954;BME280;25631;51.516;-0.470;2023-08-12T07:17:40;101211.14;;;16.67;42.40
39954;BME280;25631;51.516;-0.470;2023-08-12T07:20:17;101208.18;;;16.93;42.42
39954;BME280;25631;51.516;-0.470;2023-08-12T07:22:54;101204.42;;;17.12;42.31
39954;BME280;25631;51.516;-0.470;2023-08-12T07:25:30;101201.59;;;16.98;42.31
39954;BME280;25631;51.516;-0.470;2023-08-12T07:28:07;101204.41;;;16.81;42.16
39954;BME280;25631;51.516;-0.470;2023-08-12T07:30:43;101197.01;;;16.93;42.02
39954;BME280;25631;51.516;-0.470;2023-08-12T07:33:20;101200.35;;;16.85;41.86
39954;BME280;25631;51.516;-0.470;2023-08-12T07:35:56;101195.54;;;17.09;41.11
39954;BME280;25631;51.516;-0.470;2023-08-12T07:38:33;101194.56;;;17.11;40.90
39954;BME280;25631;51.516;-0.470;2023-08-12T07:41:11;101195.35;;;17.23;40.89
39954;BME280;25631;51.516;-0.470;2023-08-12T07:43:47;101195.66;;;17.26;41.01
39954;BME280;25631;51.516;-0.470;2023-08-12T07:46:24;101198.52;;;17.14;40.89
39954;BME280;25631;51.516;-0.470;2023-08-12T07:49:01;101195.50;;;17.07;40.77
39954;BME280;25631;51.516;-0.470;2023-08-12T07:51:37;101194.51;;;17.17;40.47
39954;BME280;25631;51.516;-0.470;2023-08-12T07:54:14;101193.82;;;17.06;40.48
39954;BME280;25631;51.516;-0.470;2023-08-12T07:56:50;101197.92;;;17.53;40.53
39954;BME280;25631;51.516;-0.470;2023-08-12T07:59:27;101201.82;;;17.23;40.51
39954;BME280;25631;51.516;-0.470;2023-08-12T08:02:03;101198.11;;;17.50;40.41
39954;BME280;25631;51.516;-0.470;2023-08-12T08:04:40;101195.24;;;17.75;40.37
39954;BME280;25631;51.516;-0.470;2023-08-12T08:07:16;101192.95;;;17.66;39.99
39954;BME280;25631;51.516;-0.470;2023-08-12T08:09:52;101190.56;;;17.82;39.56
39954;BME280;25631;51.516;-0.470;2023-08-12T08:12:29;101190.04;;;17.77;39.28
39954;BME280;25631;51.516;-0.470;2023-08-12T08:15:06;101189.54;;;17.96;39.02
39954;BME280;25631;51.516;-0.470;2023-08-12T08:17:43;101188.76;;;17.75;38.86
39954;BME280;25631;51.516;-0.470;2023-08-12T08:20:20;101191.21;;;17.75;38.14
39954;BME280;25631;51.516;-0.470;2023-08-12T08:22:57;101190.53;;;17.97;38.20
39954;BME280;25631;51.516;-0.470;2023-08-12T08:25:33;101186.19;;;18.14;38.26
39954;BME280;25631;51.516;-0.470;2023-08-12T08:28:10;101191.20;;;18.06;37.83
39954;BME280;25631;51.516;-0.470;2023-08-12T08:30:46;101188.05;;;17.74;37.52
39954;BME280;25631;51.516;-0.470;2023-08-12T08:33:23;101181.93;;;18.20;37.75
39954;BME280;25631;51.516;-0.470;2023-08-12T08:35:59;101184.55;;;18.39;37.64
39954;BME280;25631;51.516;-0.470;2023-08-12T08:38:36;101185.54;;;18.32;36.81
39954;BME280;25631;51.516;-0.470;2023-08-12T08:41:13;101184.82;;;18.36;36.49
39954;BME280;25631;51.516;-0.470;2023-08-12T08:43:53;101185.03;;;18.13;36.55
39954;BME280;25631;51.516;-0.470;2023-08-12T08:46:36;101180.85;;;18.60;36.44
39954;BME280;25631;51.516;-0.470;2023-08-12T08:49:15;101182.66;;;18.56;36.60
39954;BME280;25631;51.516;-0.470;2023-08-12T08:51:52;101170.85;;;18.45;36.33
39954;BME280;25631;51.516;-0.470;2023-08-12T08:54:29;101176.65;;;18.68;36.32
39954;BME280;25631;51.516;-0.470;2023-08-12T08:57:05;101169.84;;;18.72;35.63
39954;BME280;25631;51.516;-0.470;2023-08-12T08:59:42;101167.70;;;18.43;35.68
39954;BME280;25631;51.516;-0.470;2023-08-12T09:02:19;101166.17;;;18.66;35.73
39954;BME280;25631;51.516;-0.470;2023-08-12T09:04:56;101163.47;;;18.97;35.80
39954;BME280;25631;51.516;-0.470;2023-08-12T09:07:34;101170.74;;;19.22;35.32
39954;BME280;25631;51.516;-0.470;2023-08-12T09:10:11;101166.16;;;18.94;35.02
39954;BME280;25631;51.516;-0.470;2023-08-12T09:12:47;101165.40;;;19.47;34.89
39954;BME280;25631;51.516;-0.470;2023-08-12T09:15:24;101163.92;;;19.18;34.82
39954;BME280;25631;51.516;-0.470;2023-08-12T09:18:01;101164.06;;;19.14;34.51
39954;BME280;25631;51.516;-0.470;2023-08-12T09:20:37;101157.16;;;19.48;34.29
39954;BME280;25631;51.516;-0.470;2023-08-12T09:23:14;101155.80;;;19.40;34.29
39954;BME280;25631;51.516;-0.470;2023-08-12T09:25:50;101161.35;;;19.52;34.58
39954;BME280;25631;51.516;-0.470;2023-08-12T09:28:27;101158.71;;;19.44;34.42
39954;BME280;25631;51.516;-0.470;2023-08-12T09:31:03;101160.88;;;19.43;34.40
39954;BME280;25631;51.516;-0.470;2023-08-12T09:33:40;101161.66;;;19.12;33.98
39954;BME280;25631;51.516;-0.470;2023-08-12T09:36:17;101163.05;;;19.36;34.13
39954;BME280;25631;51.516;-0.470;2023-08-12T09:38:53;101166.85;;;19.10;34.24
39954;BME280;25631;51.516;-0.470;2023-08-12T09:41:30;101166.94;;;19.42;34.57
39954;BME280;25631;51.516;-0.470;2023-08-12T09:44:08;101161.34;;;19.49;34.14
39954;BME280;25631;51.516;-0.470;2023-08-12T09:46:45;101164.87;;;19.24;33.76
39954;BME280;25631;51.516;-0.470;2023-08-12T09:49:21;101165.39;;;19.34;33.85
39954;BME280;25631;51.516;-0.470;2023-08-12T09:51:58;101156.68;;;19.68;33.81
39954;BME280;25631;51.516;-0.470;2023-08-12T09:54:35;101160.17;;;19.56;33.90
39954;BME280;25631;51.516;-0.470;2023-08-12T09:57:13;101163.76;;;19.44;33.82
39954;BME280;25631;51.516;-0.470;2023-08-12T09:59:52;101163.45;;;19.26;34.06
39954;BME280;25631;51.516;-0.470;2023-08-12T10:02:29;101167.37;;;19.23;34.20
39954;BME280;25631;51.516;-0.470;2023-08-12T10:05:08;101170.16;;;19.16;34.19
39954;BME280;25631;51.516;-0.470;2023-08-12T10:07:46;101176.60;;;19.12;34.63
39954;BME280;25631;51.516;-0.470;2023-08-12T10:10:23;101173.65;;;18.89;34.77
39954;BME280;25631;51.516;-0.470;2023-08-12T10:13:01;101182.03;;;19.00;35.05
39954;BME280;25631;51.516;-0.470;2023-08-12T10:15:38;101170.70;;;19.02;35.68
39954;BME280;25631;51.516;-0.470;2023-08-12T10:18:15;101172.92;;;19.02;35.35
39954;BME280;25631;51.516;-0.470;2023-08-12T10:20:52;101168.98;;;19.15;35.35
39954;BME280;25631;51.516;-0.470;2023-08-12T10:23:30;101162.10;;;19.23;35.00
39954;BME280;25631;51.516;-0.470;2023-08-12T10:26:06;101161.56;;;19.29;34.77
39954;BME280;25631;51.516;-0.470;2023-08-12T10:28:43;101162.98;;;19.43;34.87
39954;BME280;25631;51.516;-0.470;2023-08-12T10:31:19;101165.25;;;19.39;34.69
39954;BME280;25631;51.516;-0.470;2023-08-12T10:33:57;101162.29;;;19.15;34.62
39954;BME280;25631;51.516;-0.470;2023-08-12T10:36:34;101165.20;;;18.75;34.52
39954;BME280;25631;51.516;-0.470;2023-08-12T10:39:11;101159.25;;;19.13;34.53
39954;BME280;25631;51.516;-0.470;2023-08-12T10:41:52;101153.92;;;19.07;34.65
39954;BME280;25631;51.516;-0.470;2023-08-12T10:44:39;101162.35;;;19.67;34.29
39954;BME280;25631;51.516;-0.470;2023-08-12T10:47:16;101163.07;;;19.49;34.35
39954;BME280;25631;51.516;-0.470;2023-08-12T10:49:53;101156.41;;;19.69;34.18
39954;BME280;25631;51.516;-0.470;2023-08-12T10:52:31;101152.76;;;20.09;33.89
39954;BME280;25631;51.516;-0.470;2023-08-12T10:55:24;101151.47;;;20.05;33.57
39954;BME280;25631;51.516;-0.470;2023-08-12T10:58:01;101143.35;;;19.58;33.57
39954;BME280;25631;51.516;-0.470;2023-08-12T11:00:44;101145.36;;;19.62;33.91
39954;BME280;25631;51.516;-0.470;2023-08-12T11:03:32;101146.03;;;19.70;34.33
39954;BME280;25631;51.516;-0.470;2023-08-12T11:06:14;101149.16;;;19.52;34.47
39954;BME280;25631;51.516;-0.470;2023-08-12T11:08:52;101153.98;;;19.64;34.34
39954;BME280;25631;51.516;-0.470;2023-08-12T11:11:29;101189.57;;;18.40;38.19
39954;BME280;25631;51.516;-0.470;2023-08-12T11:14:13;101176.74;;;18.53;38.83
39954;BME280;25631;51.516;-0.470;2023-08-12T11:16:53;101168.17;;;18.61;38.78
39954;BME280;25631;51.516;-0.470;2023-08-12T11:19:29;101160.72;;;18.29;38.58
39954;BME280;25631;51.516;-0.470;2023-08-12T11:22:06;101157.50;;;18.42;38.73
39954;BME280;25631;51.516;-0.470;2023-08-12T11:24:44;101161.72;;;18.68;38.15
39954;BME280;25631;51.516;-0.470;2023-08-12T11:27:21;101155.32;;;18.63;38.87
39954;BME280;25631;51.516;-0.470;2023-08-12T11:29:58;101158.60;;;19.09;39.05
39954;BME280;25631;51.516;-0.470;2023-08-12T11:32:34;101155.72;;;18.89;38.94
39954;BME280;25631;51.516;-0.470;2023-08-12T11:35:12;101156.11;;;18.91;38.66
39954;BME280;25631;51.516;-0.470;2023-08-12T11:37:50;101159.74;;;18.61;38.54
39954;BME280;25631;51.516;-0.470;2023-08-12T11:40:27;101162.15;;;19.01;38.10
39954;BME280;25631;51.516;-0.470;2023-08-12T11:43:04;101155.79;;;19.02;37.82
39954;BME280;25631;51.516;-0.470;2023-08-12T11:45:42;101149.11;;;19.23;37.56
39954;BME280;25631;51.516;-0.470;2023-08-12T11:48:19;101143.44;;;19.37;37.52
39954;BME280;25631;51.516;-0.470;2023-08-12T11:50:56;101137.05;;;19.32;37.49
39954;BME280;25631;51.516;-0.470;2023-08-12T11:53:33;101132.54;;;19.61;37.46
39954;BME280;25631;51.516;-0.470;2023-08-12T11:56:09;101133.95;;;19.64;37.39
39954;BME280;25631;51.516;-0.470;2023-08-12T11:58:49;101132.44;;;19.80;37.18
39954;BME280;25631;51.516;-0.470;2023-08-12T12:01:25;101127.56;;;19.71;36.83
39954;BME280;25631;51.516;-0.470;2023-08-12T12:04:03;101138.71;;;19.37;37.27
39954;BME280;25631;51.516;-0.470;2023-08-12T12:06:39;101130.15;;;19.33;37.36
39954;BME280;25631;51.516;-0.470;2023-08-12T12:09:16;101120.80;;;19.56;36.86
39954;BME280;25631;51.516;-0.470;2023-08-12T12:11:53;101129.48;;;19.71;37.07
39954;BME280;25631;51.516;-0.470;2023-08-12T12:14:30;101122.86;;;20.05;37.09
39954;BME280;25631;51.516;-0.470;2023-08-12T12:17:08;101127.51;;;19.84;36.25
39954;BME280;25631;51.516;-0.470;2023-08-12T12:19:44;101122.54;;;19.96;34.69
39954;BME280;25631;51.516;-0.470;2023-08-12T12:22:26;101122.54;;;20.15;34.34
39954;BME280;25631;51.516;-0.470;2023-08-12T12:25:06;101112.78;;;19.71;34.57
39954;BME280;25631;51.516;-0.470;2023-08-12T12:27:45;101121.99;;;19.34;34.23
39954;BME280;25631;51.516;-0.470;2023-08-12T12:30:22;101114.87;;;19.79;34.08
39954;BME280;25631;51.516;-0.470;2023-08-12T12:32:58;101105.82;;;20.05;34.23
39954;BME280;25631;51.516;-0.470;2023-08-12T12:35:35;101098.79;;;20.49;34.37
39954;BME280;25631;51.516;-0.470;2023-08-12T12:38:11;101103.85;;;20.55;33.89
39954;BME280;25631;51.516;-0.470;2023-08-12T12:40:48;101094.07;;;20.53;33.53
39954;BME280;25631;51.516;-0.470;2023-08-12T12:43:24;101111.33;;;20.63;33.66
39954;BME280;25631;51.516;-0.470;2023-08-12T12:46:01;101104.19;;;20.50;33.64
39954;BME280;25631;51.516;-0.470;2023-08-12T12:48:37;101104.79;;;20.72;33.58
39954;BME280;25631;51.516;-0.470;2023-08-12T12:51:13;101106.86;;;20.37;32.86
39954;BME280;25631;51.516;-0.470;2023-08-12T12:53:50;101102.41;;;20.63;33.28
39954;BME280;25631;51.516;-0.470;2023-08-12T12:56:27;101110.88;;;20.75;33.56
39954;BME280;25631;51.516;-0.470;2023-08-12T12:59:03;101109.42;;;20.61;33.29
39954;BME280;25631;51.516;-0.470;2023-08-12T13:01:40;101115.30;;;20.86;33.17
39954;BME280;25631;51.516;-0.470;2023-08-12T13:04:16;101117.44;;;20.91;32.75
39954;BME280;25631;51.516;-0.470;2023-08-12T13:06:52;101112.15;;;21.05;32.19
39954;BME280;25631;51.516;-0.470;2023-08-12T13:09:29;101118.50;;;20.76;32.99
39954;BME280;25631;51.516;-0.470;2023-08-12T13:12:05;101124.28;;;20.48;33.91
39954;BME280;25631;51.516;-0.470;2023-08-12T13:14:42;101125.88;;;20.24;34.45
39954;BME280;25631;51.516;-0.470;2023-08-12T13:17:19;101129.66;;;20.26;34.69
39954;BME280;25631;51.516;-0.470;2023-08-12T13:19:56;101137.53;;;19.98;35.31
39954;BME280;25631;51.516;-0.470;2023-08-12T13:22:32;101140.21;;;19.68;35.43
39954;BME280;25631;51.516;-0.470;2023-08-12T13:25:09;101142.21;;;19.76;35.39
39954;BME280;25631;51.516;-0.470;2023-08-12T13:27:46;101141.03;;;20.05;35.39
39954;BME280;25631;51.516;-0.470;2023-08-12T13:30:22;101143.67;;;20.17;35.20